createdAt,value
2018-12-20T00:00:10.011Z,97081.00
2018-12-20T00:02:39.270Z,97069.00
2018-12-20T00:05:08.681Z,97075.00
2018-12-20T00:07:38.010Z,97076.00
2018-12-20T00:10:07.739Z,97079.00
2018-12-20T00:12:37.014Z,97075.00
2018-12-20T00:15:06.752Z,97074.00
2018-12-20T00:17:41.375Z,97076.00
2018-12-20T00:20:10.986Z,97068.00
2018-12-20T00:22:40.186Z,97059.00
2018-12-20T00:25:10.255Z,97062.00
2018-12-20T00:27:39.490Z,97064.00
2018-12-20T00:30:08.847Z,97073.00
2018-12-20T00:32:38.038Z,97066.00
2018-12-20T00:35:07.535Z,97089.00
2018-12-20T00:37:36.832Z,97062.00
2018-12-20T00:40:07.092Z,97066.00
2018-12-20T00:42:36.598Z,97057.00
2018-12-20T00:45:06.350Z,97067.00
2018-12-20T00:47:35.615Z,97066.00
2018-12-20T00:50:05.805Z,97065.00
2018-12-20T00:52:35.045Z,97078.00
2018-12-20T00:55:04.418Z,97089.00
2018-12-20T00:57:33.586Z,97086.00
2018-12-20T01:00:02.874Z,97080.00
2018-12-20T01:02:32.082Z,97102.00
2018-12-20T01:05:01.393Z,97094.00
2018-12-20T01:07:30.660Z,97088.00
2018-12-20T01:09:59.987Z,97095.00
2018-12-20T01:12:29.373Z,97102.00
2018-12-20T01:14:58.715Z,97093.00
2018-12-20T01:17:32.178Z,97093.00
2018-12-20T01:20:01.523Z,97093.00
2018-12-20T01:22:30.745Z,97096.00
2018-12-20T01:24:59.923Z,97103.00
2018-12-20T01:27:29.177Z,97096.00
2018-12-20T01:29:58.651Z,97096.00
2018-12-20T01:32:27.972Z,97095.00
2018-12-20T01:34:57.398Z,97105.00
2018-12-20T01:37:26.766Z,97112.00
2018-12-20T01:39:56.168Z,97106.00
2018-12-20T01:42:25.477Z,97096.00
2018-12-20T01:44:54.862Z,97103.00
2018-12-20T01:47:24.052Z,97096.00
2018-12-20T01:49:53.417Z,97107.00
2018-12-20T01:52:22.739Z,97102.00
2018-12-20T01:54:52.019Z,97110.00
2018-12-20T01:57:21.260Z,97103.00
2018-12-20T01:59:50.529Z,97115.00
2018-12-20T02:02:19.900Z,97100.00
2018-12-20T02:04:49.205Z,97100.00
2018-12-20T02:07:18.712Z,97097.00
2018-12-20T02:09:47.962Z,97104.00
2018-12-20T02:12:17.225Z,97080.00
2018-12-20T02:14:46.759Z,97115.00
2018-12-20T02:17:16.145Z,97093.00
2018-12-20T02:19:45.577Z,97088.00
2018-12-20T02:22:15.052Z,97089.00
2018-12-20T02:24:44.303Z,97088.00
2018-12-20T02:27:13.587Z,97087.00
2018-12-20T02:29:42.836Z,97084.00
2018-12-20T02:32:12.081Z,97081.00
2018-12-20T02:34:41.437Z,97082.00
2018-12-20T02:37:10.832Z,97081.00
2018-12-20T02:39:40.577Z,97080.00
2018-12-20T02:42:09.953Z,97087.00
2018-12-20T02:44:39.280Z,97078.00
2018-12-20T02:47:08.649Z,97072.00
2018-12-20T02:49:38.100Z,97078.00
2018-12-20T02:52:07.692Z,97048.00
2018-12-20T02:54:36.993Z,97084.00
2018-12-20T02:57:06.274Z,97085.00
2018-12-20T02:59:35.443Z,97092.00
2018-12-20T03:02:04.721Z,97087.00
2018-12-20T03:04:34.072Z,97079.00
2018-12-20T03:07:03.359Z,97072.00
2018-12-20T03:09:32.832Z,97073.00
2018-12-20T03:12:02.104Z,97084.00
2018-12-20T03:14:31.473Z,97079.00
2018-12-20T03:17:00.789Z,97074.00
2018-12-20T03:19:30.125Z,97082.00
2018-12-20T03:21:59.513Z,97070.00
2018-12-20T03:24:28.927Z,97073.00
2018-12-20T03:26:58.292Z,97071.00
2018-12-20T03:29:27.465Z,97074.00
2018-12-20T03:31:57.348Z,97086.00
2018-12-20T03:34:26.913Z,97074.00
2018-12-20T03:36:56.230Z,97072.00
2018-12-20T03:39:25.399Z,97070.00
2018-12-20T03:41:54.931Z,97068.00
2018-12-20T03:44:24.464Z,97074.00
2018-12-20T03:46:53.707Z,97065.00
2018-12-20T03:49:23.086Z,97064.00
2018-12-20T03:51:52.527Z,97065.00
2018-12-20T03:54:22.160Z,97061.00
2018-12-20T03:56:51.503Z,97064.00
2018-12-20T03:59:22.063Z,97056.00
2018-12-20T04:01:51.375Z,97064.00
2018-12-20T04:04:20.664Z,97059.00
2018-12-20T04:06:49.970Z,97068.00
2018-12-20T04:09:19.543Z,97067.00
2018-12-20T04:11:48.786Z,97055.00
2018-12-20T04:14:17.972Z,97058.00
2018-12-20T04:16:47.429Z,97056.00
2018-12-20T04:19:16.859Z,97048.00
2018-12-20T04:21:46.319Z,97050.00
2018-12-20T04:24:16.076Z,97053.00
2018-12-20T04:26:45.302Z,97050.00
2018-12-20T04:29:14.568Z,97056.00
2018-12-20T04:31:43.953Z,97058.00
2018-12-20T04:34:13.220Z,97056.00
2018-12-20T04:36:42.414Z,97062.00
2018-12-20T04:39:11.878Z,97068.00
2018-12-20T04:41:41.100Z,97061.00
2018-12-20T04:44:10.514Z,97063.00
2018-12-20T04:46:39.927Z,97067.00
2018-12-20T04:49:09.339Z,97070.00
2018-12-20T04:51:38.950Z,97069.00
2018-12-20T04:54:08.262Z,97068.00
2018-12-20T04:56:37.486Z,97077.00
2018-12-20T04:59:06.746Z,97068.00
2018-12-20T05:01:36.091Z,97067.00
2018-12-20T05:04:05.653Z,97067.00
2018-12-20T05:06:35.048Z,97068.00
2018-12-20T05:09:06.709Z,97085.00
2018-12-20T05:11:36.181Z,97083.00
2018-12-20T05:14:05.648Z,97080.00
2018-12-20T05:16:35.141Z,97077.00
2018-12-20T05:19:04.743Z,97069.00
2018-12-20T05:21:34.110Z,97074.00
2018-12-20T05:24:03.515Z,97072.00
2018-12-20T05:26:32.964Z,97063.00
2018-12-20T05:29:02.241Z,97090.00
2018-12-20T05:31:31.713Z,97067.00
2018-12-20T05:34:00.953Z,97080.00
2018-12-20T05:36:30.236Z,97070.00
2018-12-20T05:38:59.556Z,97077.00
2018-12-20T05:41:28.959Z,97069.00
2018-12-20T05:43:58.229Z,97069.00
2018-12-20T05:46:27.660Z,97069.00
2018-12-20T05:48:56.855Z,97089.00
2018-12-20T05:51:26.395Z,97082.00
2018-12-20T05:53:55.696Z,97082.00
2018-12-20T05:56:24.898Z,97069.00
2018-12-20T05:58:54.071Z,97071.00
2018-12-20T06:01:23.307Z,97065.00
2018-12-20T06:03:52.579Z,97064.00
2018-12-20T06:06:21.844Z,97071.00
2018-12-20T06:08:51.259Z,97070.00
2018-12-20T06:11:20.513Z,97078.00
2018-12-20T06:13:49.816Z,97078.00
2018-12-20T06:16:19.100Z,97073.00
2018-12-20T06:18:48.433Z,97084.00
2018-12-20T06:21:17.662Z,97072.00
2018-12-20T06:23:46.862Z,97086.00
2018-12-20T06:26:16.048Z,97078.00
2018-12-20T06:28:45.227Z,97082.00
2018-12-20T06:31:14.491Z,97089.00
2018-12-20T06:33:43.682Z,97090.00
2018-12-20T06:36:12.943Z,97099.00
2018-12-20T06:38:42.147Z,97106.00
2018-12-20T06:41:11.313Z,97115.00
2018-12-20T06:43:40.535Z,97100.00
2018-12-20T06:46:09.840Z,97098.00
2018-12-20T06:48:39.023Z,97095.00
2018-12-20T06:51:08.254Z,97087.00
2018-12-20T06:53:37.458Z,97091.00
2018-12-20T06:56:06.670Z,97102.00
2018-12-20T06:58:35.957Z,97103.00
2018-12-20T07:01:05.121Z,97089.00
2018-12-20T07:03:34.326Z,97100.00
2018-12-20T07:06:03.536Z,97097.00
2018-12-20T07:08:32.762Z,97088.00
2018-12-20T07:11:01.949Z,97078.00
2018-12-20T07:13:31.150Z,97093.00
2018-12-20T07:16:00.403Z,97090.00
2018-12-20T07:18:29.604Z,97101.00
2018-12-20T07:20:58.764Z,97103.00
2018-12-20T07:23:27.960Z,97113.00
2018-12-20T07:25:57.147Z,97102.00
2018-12-20T07:28:26.434Z,97107.00
2018-12-20T07:30:55.898Z,97104.00
2018-12-20T07:33:25.212Z,97106.00
2018-12-20T07:35:54.403Z,97111.00
2018-12-20T07:38:23.615Z,97112.00
2018-12-20T07:40:52.946Z,97122.00
2018-12-20T07:43:22.269Z,97114.00
2018-12-20T07:45:51.597Z,97115.00
2018-12-20T07:48:20.779Z,97122.00
2018-12-20T07:50:49.955Z,97131.00
2018-12-20T07:53:19.226Z,97124.00
2018-12-20T07:55:48.454Z,97127.00
2018-12-20T07:58:17.651Z,97134.00
2018-12-20T08:00:46.827Z,97130.00
2018-12-20T08:03:16.014Z,97127.00
2018-12-20T08:05:45.198Z,97131.00
2018-12-20T08:08:14.379Z,97121.00
2018-12-20T08:10:43.535Z,97128.00
2018-12-20T08:13:12.734Z,97118.00
2018-12-20T08:15:41.910Z,97129.00
2018-12-20T08:18:11.107Z,97141.00
2018-12-20T08:20:40.294Z,97132.00
2018-12-20T08:23:09.572Z,97118.00
2018-12-20T08:25:38.778Z,97129.00
2018-12-20T08:28:08.004Z,97138.00
2018-12-20T08:30:37.262Z,97141.00
2018-12-20T08:33:06.447Z,97139.00
2018-12-20T08:35:35.673Z,97141.00
2018-12-20T08:38:04.874Z,97144.00
2018-12-20T08:40:34.087Z,97144.00
2018-12-20T08:43:03.455Z,97150.00
2018-12-20T08:45:39.319Z,97148.00
2018-12-20T08:48:08.489Z,97153.00
2018-12-20T08:50:37.735Z,97150.00
2018-12-20T08:53:07.015Z,97148.00
2018-12-20T08:55:36.249Z,97154.00
2018-12-20T08:58:05.517Z,97162.00
2018-12-20T09:00:37.602Z,97197.00
2018-12-20T09:03:06.785Z,97165.00
2018-12-20T09:05:36.066Z,97159.00
2018-12-20T09:08:05.433Z,97160.00
2018-12-20T09:10:34.627Z,97150.00
2018-12-20T09:13:09.599Z,97167.00
2018-12-20T09:15:35.135Z,97155.00
2018-12-20T09:18:04.452Z,97152.00
2018-12-20T09:20:33.675Z,97163.00
2018-12-20T09:23:02.860Z,97167.00
2018-12-20T09:25:32.075Z,97169.00
2018-12-20T09:28:01.327Z,97150.00
2018-12-20T09:30:30.953Z,97152.00
2018-12-20T09:33:00.338Z,97156.00
2018-12-20T09:35:29.595Z,97145.00
2018-12-20T09:38:00.976Z,97150.00
2018-12-20T09:40:30.129Z,97142.00
2018-12-20T09:42:59.344Z,97148.00
2018-12-20T09:45:28.556Z,97140.00
2018-12-20T09:48:03.195Z,97143.00
2018-12-20T09:50:32.481Z,97130.00
2018-12-20T09:53:01.875Z,97140.00
2018-12-20T09:55:31.179Z,97137.00
2018-12-20T09:58:00.380Z,97141.00
2018-12-20T10:00:30.239Z,97133.00
2018-12-20T10:02:59.480Z,97128.00
2018-12-20T10:05:28.889Z,97158.00
2018-12-20T10:07:58.062Z,97126.00
2018-12-20T10:10:27.252Z,97124.00
2018-12-20T10:12:56.414Z,97123.00
2018-12-20T10:15:25.634Z,97130.00
2018-12-20T10:17:54.797Z,97107.00
2018-12-20T10:20:24.023Z,97120.00
2018-12-20T10:22:53.187Z,97111.00
2018-12-20T10:25:22.378Z,97114.00
2018-12-20T10:27:51.589Z,97104.00
2018-12-20T10:30:20.774Z,97116.00
2018-12-20T10:32:50.032Z,97096.00
2018-12-20T10:35:19.214Z,97084.00
2018-12-20T10:37:48.385Z,97089.00
2018-12-20T10:40:17.570Z,97106.00
2018-12-20T10:42:46.747Z,97091.00
2018-12-20T10:45:16.317Z,97096.00
2018-12-20T10:47:45.486Z,97090.00
2018-12-20T10:50:14.774Z,97091.00
2018-12-20T10:52:43.937Z,97085.00
2018-12-20T10:55:13.209Z,97085.00
2018-12-20T10:57:42.366Z,97083.00
2018-12-20T11:00:11.878Z,97079.00
2018-12-20T11:02:46.489Z,97082.00
2018-12-20T11:05:21.265Z,97093.00
2018-12-20T11:07:57.367Z,97086.00
2018-12-20T11:10:29.056Z,97086.00
2018-12-20T11:13:00.238Z,97088.00
2018-12-20T11:15:29.475Z,97077.00
2018-12-20T11:17:58.643Z,97084.00
2018-12-20T11:20:27.850Z,97091.00
2018-12-20T11:22:57.117Z,97081.00
2018-12-20T11:25:26.307Z,97085.00
2018-12-20T11:27:55.472Z,97084.00
2018-12-20T11:30:24.658Z,97077.00
2018-12-20T11:32:53.867Z,97087.00
2018-12-20T11:35:23.074Z,97083.00
2018-12-20T11:37:52.245Z,97085.00
2018-12-20T11:40:21.665Z,97062.00
2018-12-20T11:42:50.838Z,97077.00
2018-12-20T11:45:20.009Z,97085.00
2018-12-20T11:47:49.234Z,97070.00
2018-12-20T11:50:18.432Z,97073.00
2018-12-20T11:52:47.608Z,97075.00
2018-12-20T11:55:16.889Z,97067.00
2018-12-20T11:57:46.045Z,97068.00
2018-12-20T12:00:15.318Z,97069.00
2018-12-20T12:02:44.473Z,97085.00
2018-12-20T12:05:13.758Z,97075.00
2018-12-20T12:07:42.969Z,97082.00
2018-12-20T12:10:12.226Z,97079.00
2018-12-20T12:12:41.393Z,97084.00
2018-12-20T12:15:10.601Z,97074.00
2018-12-20T12:17:39.749Z,97070.00
2018-12-20T12:20:09.545Z,97074.00
2018-12-20T12:22:38.746Z,97074.00
2018-12-20T12:25:08.617Z,97081.00
2018-12-20T12:27:37.832Z,97074.00
2018-12-20T12:30:09.457Z,97084.00
2018-12-20T12:32:38.638Z,97081.00
2018-12-20T12:35:08.222Z,97069.00
2018-12-20T12:37:37.410Z,97074.00
2018-12-20T12:40:08.101Z,97083.00
2018-12-20T12:42:37.283Z,97051.00
2018-12-20T12:45:07.333Z,97092.00
2018-12-20T12:47:41.984Z,97080.00
2018-12-20T12:50:11.264Z,97079.00
2018-12-20T12:52:40.449Z,97084.00
2018-12-20T12:55:09.919Z,97065.00
2018-12-20T12:57:39.122Z,97081.00
2018-12-20T13:00:20.341Z,97079.00
2018-12-20T13:02:49.819Z,97067.00
2018-12-20T13:05:19.378Z,97077.00
2018-12-20T13:07:48.597Z,97082.00
2018-12-20T13:10:17.797Z,97071.00
2018-12-20T13:12:47.145Z,97080.00
2018-12-20T13:15:16.365Z,97080.00
2018-12-20T13:17:45.629Z,97079.00
2018-12-20T13:20:16.427Z,97073.00
2018-12-20T13:22:45.663Z,97070.00
2018-12-20T13:25:14.848Z,97069.00
2018-12-20T13:27:44.069Z,97076.00
2018-12-20T13:30:13.818Z,97061.00
2018-12-20T13:32:43.007Z,97085.00
2018-12-20T13:35:12.337Z,97079.00
2018-12-20T13:37:41.529Z,97075.00
2018-12-20T13:40:10.877Z,97078.00
2018-12-20T13:42:40.086Z,97086.00
2018-12-20T13:45:09.301Z,97090.00
2018-12-20T13:47:38.500Z,97091.00
2018-12-20T13:50:09.449Z,97082.00
2018-12-20T13:52:38.681Z,97086.00
2018-12-20T13:55:08.054Z,97090.00
2018-12-20T13:57:37.296Z,97103.00
2018-12-20T14:00:11.549Z,97085.00
2018-12-20T14:02:41.066Z,97109.00
2018-12-20T14:05:10.438Z,97100.00
2018-12-20T14:07:40.105Z,97099.00
2018-12-20T14:10:10.069Z,97094.00
2018-12-20T14:12:39.382Z,97091.00
2018-12-20T14:15:09.578Z,97098.00
2018-12-20T14:17:38.783Z,97092.00
2018-12-20T14:20:08.806Z,97098.00
2018-12-20T14:22:38.051Z,97093.00
2018-12-20T14:25:07.578Z,97089.00
2018-12-20T14:27:36.803Z,97087.00
2018-12-20T14:30:09.344Z,97083.00
2018-12-20T14:32:38.606Z,97090.00
2018-12-20T14:35:08.291Z,97091.00
2018-12-20T14:37:37.678Z,97089.00
2018-12-20T14:40:10.709Z,97097.00
2018-12-20T14:42:39.989Z,97002.00
2018-12-20T14:45:09.378Z,97103.00
2018-12-20T14:47:38.679Z,97102.00
2018-12-20T14:50:09.467Z,97092.00
2018-12-20T14:52:38.660Z,97100.00
2018-12-20T14:55:09.449Z,97105.00
2018-12-20T14:57:38.633Z,97102.00
2018-12-20T15:00:10.739Z,97108.00
2018-12-20T15:02:40.146Z,96914.00
2018-12-20T15:05:09.412Z,97107.00
2018-12-20T15:07:38.653Z,97125.00
2018-12-20T15:10:10.169Z,97104.00
2018-12-20T15:12:39.394Z,97102.00
2018-12-20T15:15:10.297Z,97106.00
2018-12-20T15:17:39.481Z,97105.00
2018-12-20T15:20:10.137Z,97166.00
2018-12-20T15:22:39.369Z,97119.00
2018-12-20T15:25:08.705Z,97138.00
2018-12-20T15:27:37.896Z,97123.00
2018-12-20T15:30:09.215Z,97127.00
2018-12-20T15:32:38.548Z,97141.00
2018-12-20T15:35:08.053Z,97134.00
2018-12-20T15:37:37.378Z,97127.00
2018-12-20T15:40:09.522Z,97142.00
2018-12-20T15:42:38.809Z,97136.00
2018-12-20T15:45:09.433Z,97145.00
2018-12-20T15:47:38.665Z,97142.00
2018-12-20T15:50:09.521Z,97148.00
2018-12-20T15:52:38.792Z,97155.00
2018-12-20T15:55:08.569Z,97145.00
2018-12-20T15:57:37.757Z,97150.00
2018-12-20T16:00:09.801Z,97146.00
2018-12-20T16:02:39.114Z,97150.00
2018-12-20T16:05:08.510Z,97144.00
2018-12-20T16:07:37.693Z,97155.00
2018-12-20T16:10:09.533Z,97151.00
2018-12-20T16:12:38.797Z,97146.00
2018-12-20T16:15:08.708Z,97148.00
2018-12-20T16:17:37.908Z,97150.00
2018-12-20T16:20:08.481Z,97147.00
2018-12-20T16:22:37.701Z,97147.00
2018-12-20T16:25:08.705Z,97152.00
2018-12-20T16:27:37.890Z,97157.00
2018-12-20T16:30:10.689Z,97156.00
2018-12-20T16:32:40.194Z,97214.00
2018-12-20T16:35:09.733Z,97164.00
2018-12-20T16:37:39.093Z,97150.00
2018-12-20T16:40:08.977Z,97168.00
2018-12-20T16:42:38.301Z,97159.00
2018-12-20T16:45:08.678Z,97164.00
2018-12-20T16:47:38.049Z,97155.00
2018-12-20T16:50:09.794Z,97160.00
2018-12-20T16:52:39.042Z,97149.00
2018-12-20T16:55:09.257Z,97157.00
2018-12-20T16:57:38.543Z,97157.00
2018-12-20T17:00:10.691Z,97153.00
2018-12-20T17:02:39.872Z,97091.00
2018-12-20T17:05:09.154Z,97160.00
2018-12-20T17:07:38.369Z,97163.00
2018-12-20T17:10:08.806Z,97161.00
2018-12-20T17:12:38.406Z,97162.00
2018-12-20T17:15:07.713Z,97162.00
2018-12-20T17:17:36.918Z,97159.00
2018-12-20T17:20:07.840Z,97157.00
2018-12-20T17:22:38.124Z,97165.00
2018-12-20T17:25:07.299Z,97166.00
2018-12-20T17:27:36.522Z,97170.00
2018-12-20T17:30:08.013Z,97171.00
2018-12-20T17:32:37.292Z,97172.00
2018-12-20T17:35:06.613Z,97167.00
2018-12-20T17:37:35.808Z,97166.00
2018-12-20T17:40:05.522Z,97178.00
2018-12-20T17:42:34.742Z,97174.00
2018-12-20T17:45:04.738Z,97175.00
2018-12-20T17:47:34.047Z,97166.00
2018-12-20T17:50:03.433Z,97180.00
2018-12-20T17:52:32.629Z,97165.00
2018-12-20T17:55:01.846Z,97165.00
2018-12-20T17:57:31.113Z,97152.00
2018-12-20T18:00:00.368Z,97164.00
2018-12-20T18:02:29.608Z,97162.00
2018-12-20T18:05:06.700Z,97175.00
2018-12-20T18:07:30.097Z,97171.00
2018-12-20T18:10:00.353Z,97171.00
2018-12-20T18:12:29.605Z,97178.00
2018-12-20T18:14:59.425Z,97167.00
2018-12-20T18:17:29.475Z,97171.00
2018-12-20T18:19:59.411Z,97169.00
2018-12-20T18:22:32.705Z,97177.00
2018-12-20T18:25:07.590Z,97184.00
2018-12-20T18:27:42.633Z,97182.00
2018-12-20T18:30:16.967Z,97183.00
2018-12-20T18:32:49.766Z,97179.00
2018-12-20T18:35:23.730Z,97178.00
2018-12-20T18:37:58.007Z,97187.00
2018-12-20T18:40:32.167Z,97199.00
2018-12-20T18:43:07.380Z,97184.00
2018-12-20T18:45:41.573Z,97183.00
2018-12-20T18:48:11.881Z,97197.00
2018-12-20T18:50:41.470Z,97199.00
2018-12-20T18:53:10.689Z,97202.00
2018-12-20T18:55:40.123Z,97194.00
2018-12-20T18:58:09.330Z,97198.00
2018-12-20T19:00:38.512Z,97200.00
2018-12-20T19:03:07.716Z,97189.00
2018-12-20T19:05:36.907Z,97191.00
2018-12-20T19:08:06.209Z,97195.00
2018-12-20T19:10:35.465Z,97183.00
2018-12-20T19:13:04.701Z,97185.00
2018-12-20T19:15:34.047Z,97186.00
2018-12-20T19:18:03.241Z,97186.00
2018-12-20T19:20:32.442Z,97181.00
2018-12-20T19:23:01.653Z,97194.00
2018-12-20T19:25:31.536Z,97192.00
2018-12-20T19:28:00.807Z,97189.00
2018-12-20T19:30:30.118Z,97193.00
2018-12-20T19:32:59.359Z,97196.00
2018-12-20T19:35:28.705Z,97191.00
2018-12-20T19:37:57.890Z,97191.00
2018-12-20T19:40:27.441Z,97199.00
2018-12-20T19:42:57.545Z,97194.00
2018-12-20T19:45:30.406Z,97196.00
2018-12-20T19:48:04.507Z,97211.00
2018-12-20T19:50:39.466Z,97190.00
2018-12-20T19:53:14.408Z,97189.00
2018-12-20T19:55:49.689Z,97192.00
2018-12-20T19:58:24.879Z,97190.00
2018-12-20T20:01:00.162Z,97201.00
2018-12-20T20:03:35.516Z,97189.00
2018-12-20T20:06:10.504Z,97191.00
2018-12-20T20:08:44.661Z,97193.00
2018-12-20T20:11:18.827Z,97183.00
2018-12-20T20:13:53.257Z,97189.00
2018-12-20T20:16:28.025Z,97189.00
2018-12-20T20:19:01.669Z,97209.00
2018-12-20T20:21:36.634Z,97197.00
2018-12-20T20:24:11.309Z,97196.00
2018-12-20T20:26:45.603Z,97196.00
2018-12-20T20:29:17.795Z,97185.00
2018-12-20T20:31:46.982Z,97183.00
2018-12-20T20:34:16.165Z,97196.00
2018-12-20T20:36:45.334Z,97199.00
2018-12-20T20:39:14.521Z,97204.00
2018-12-20T20:41:43.706Z,97201.00
2018-12-20T20:44:12.883Z,97202.00
2018-12-20T20:46:42.041Z,97018.00
2018-12-20T20:49:11.375Z,97200.00
2018-12-20T20:51:40.604Z,97192.00
2018-12-20T20:54:09.781Z,97190.00
2018-12-20T20:56:38.949Z,97183.00
2018-12-20T20:59:08.142Z,97191.00
2018-12-20T21:01:37.299Z,97185.00
2018-12-20T21:04:06.754Z,97194.00
2018-12-20T21:06:36.021Z,97189.00
2018-12-20T21:09:08.386Z,97183.00
2018-12-20T21:11:37.546Z,97198.00
2018-12-20T21:14:06.823Z,97201.00
2018-12-20T21:16:36.065Z,97198.00
2018-12-20T21:19:05.344Z,97205.00
2018-12-20T21:21:34.489Z,97207.00
2018-12-20T21:24:03.759Z,97207.00
2018-12-20T21:26:33.045Z,97206.00
2018-12-20T21:29:02.206Z,97206.00
2018-12-20T21:31:31.404Z,97204.00
2018-12-20T21:34:00.661Z,97221.00
2018-12-20T21:36:29.868Z,97208.00
2018-12-20T21:38:59.033Z,97212.00
2018-12-20T21:41:28.381Z,97214.00
2018-12-20T21:43:57.543Z,97213.00
2018-12-20T21:46:26.732Z,97210.00
2018-12-20T21:48:55.957Z,97214.00
2018-12-20T21:51:25.138Z,97214.00
2018-12-20T21:53:54.984Z,97221.00
2018-12-20T21:56:24.512Z,97211.00
2018-12-20T21:58:53.738Z,97208.00
2018-12-20T22:01:22.910Z,97220.00
2018-12-20T22:03:52.169Z,97214.00
2018-12-20T22:06:21.392Z,97217.00
2018-12-20T22:08:50.563Z,97230.00
2018-12-20T22:11:19.764Z,97233.00
2018-12-20T22:13:48.969Z,97087.00
2018-12-20T22:16:18.177Z,97214.00
2018-12-20T22:18:47.356Z,97205.00
2018-12-20T22:21:16.801Z,97212.00
2018-12-20T22:23:45.969Z,97218.00
2018-12-20T22:26:15.146Z,97212.00
2018-12-20T22:28:44.302Z,97212.00
2018-12-20T22:31:13.543Z,97202.00
2018-12-20T22:33:42.697Z,97206.00
2018-12-20T22:36:11.906Z,97196.00
2018-12-20T22:38:41.094Z,97193.00
2018-12-20T22:41:10.424Z,97195.00
2018-12-20T22:43:39.577Z,97186.00
2018-12-20T22:46:08.741Z,97200.00
2018-12-20T22:48:37.917Z,97186.00
2018-12-20T22:51:07.137Z,97193.00
2018-12-20T22:53:36.317Z,97198.00
2018-12-20T22:56:05.605Z,97208.00
2018-12-20T22:58:34.773Z,97186.00
2018-12-20T23:01:04.953Z,97194.00
2018-12-20T23:03:34.229Z,97200.00
2018-12-20T23:06:03.501Z,97195.00
2018-12-20T23:08:32.676Z,97205.00
2018-12-20T23:11:01.889Z,97200.00
2018-12-20T23:13:31.154Z,97203.00
2018-12-20T23:16:00.406Z,97197.00
2018-12-20T23:18:29.573Z,97195.00
2018-12-20T23:21:04.898Z,97211.00
2018-12-20T23:23:29.952Z,97204.00
2018-12-20T23:25:59.151Z,97202.00
2018-12-20T23:28:28.353Z,97209.00
2018-12-20T23:30:57.559Z,97204.00
2018-12-20T23:33:26.817Z,97210.00
2018-12-20T23:35:56.088Z,97202.00
2018-12-20T23:38:25.337Z,97197.00
2018-12-20T23:40:55.979Z,97204.00
2018-12-20T23:43:25.176Z,97207.00
2018-12-20T23:45:54.494Z,97206.00
2018-12-20T23:48:23.675Z,97190.00
2018-12-20T23:50:59.558Z,97188.00
2018-12-20T23:53:28.749Z,97186.00
2018-12-20T23:55:57.941Z,97195.00
2018-12-20T23:58:27.193Z,97176.00
